Huvudsida
METAR-TAF:

METAR-TAF

Flygplatser :

Yap, Mikronesien

Yap International Airport

latitud: 09-29N, longitud: 138-05E, höjd: 28 m

Aktuellt väderrapport

Denna rapport gjordes för 1 timme och 4 minuter sedan, klockan 07:50 UTC
Vind 7 kt från nordost
Temperatur 30°C
Fuktighet 75%
Tryck 1007 hPa
Sikt: 19.3 km
Få moln på en höjd av 1600 ft
Spridda moln på en höjd av 30000 ft

METAR: PTYA 250750Z 05007KT 12SM FEW016 SCT300 30/25 A2975 RMK SLP076 T02980245

Tid: 18:54 (08:54 UTC)

Väderprognos

Denna rapport gjordes för 3 timmar och 27 minuter sedan, klockan 05:27 UTC
Prognos gäller från 25 kl. 06 UTC till 26 kl. 06 UTC
Vind 7 kt från ost/nordost
Sikt: 10 km
Spridda moln på en höjd av 1600 ft

TAF: PTYA 250527Z 2506/2606 07007KT P6SM SCT016

Aktuella väderrapporter och prognoser från 4000 flygplatser (METAR- och TAF-rapporter).

De tillgängliga stationerna syns som gula och röda prickar på kartan.

För musen över prickarna för att se namnen på stationerna.

Klicka sedan för att få väderrapporter och prognoser.

För att ändra kartan: Klicka på de gröna knapparna med ett svart kors på för att zooma in; den gröna knappen med ett streck på för att zooma ut; eller på de gröna pilarna för angränsande kartor.


METAR-TAF: